createdAt,value
2019-03-23T00:00:59.505Z,99.99
2019-03-23T00:02:09.432Z,99.99
2019-03-23T00:03:19.352Z,99.99
2019-03-23T00:04:29.276Z,99.99
2019-03-23T00:05:39.192Z,99.99
2019-03-23T00:06:49.110Z,99.99
2019-03-23T00:07:59.026Z,99.99
2019-03-23T00:09:08.954Z,99.99
2019-03-23T00:10:18.874Z,99.99
2019-03-23T00:11:28.891Z,99.99
2019-03-23T00:12:38.808Z,99.99
2019-03-23T00:13:48.735Z,99.99
2019-03-23T00:14:58.657Z,99.99
2019-03-23T00:16:08.579Z,99.99
2019-03-23T00:17:18.495Z,99.99
2019-03-23T00:18:28.425Z,99.99
2019-03-23T00:19:38.363Z,99.99
2019-03-23T00:20:48.288Z,99.99
2019-03-23T00:21:58.208Z,99.99
2019-03-23T00:23:08.144Z,99.99
2019-03-23T00:24:18.064Z,99.99
2019-03-23T00:25:27.984Z,99.99
2019-03-23T00:26:37.922Z,99.99
2019-03-23T00:27:47.842Z,99.99
2019-03-23T00:28:58.614Z,99.99
2019-03-23T00:30:08.541Z,99.99
2019-03-23T00:31:18.490Z,99.99
2019-03-23T00:32:28.408Z,99.99
2019-03-23T00:33:38.332Z,99.99
2019-03-23T00:34:48.257Z,99.99
2019-03-23T00:35:58.181Z,99.99
2019-03-23T00:37:08.105Z,99.99
2019-03-23T00:38:18.023Z,99.99
2019-03-23T00:39:27.951Z,99.99
2019-03-23T00:40:37.995Z,99.99
2019-03-23T00:41:47.925Z,99.99
2019-03-23T00:42:57.845Z,99.99
2019-03-23T00:44:09.929Z,99.99
2019-03-23T00:45:19.850Z,99.99
2019-03-23T00:46:29.826Z,99.99
2019-03-23T00:47:39.746Z,99.99
2019-03-23T00:48:49.663Z,99.99
2019-03-23T00:49:59.606Z,99.99
2019-03-23T00:51:09.532Z,99.99
2019-03-23T00:52:19.553Z,99.99
2019-03-23T00:53:29.477Z,99.99
2019-03-23T00:54:39.400Z,99.99
2019-03-23T00:55:49.321Z,99.99
2019-03-23T00:56:59.241Z,99.99
2019-03-23T00:58:09.156Z,99.99
2019-03-23T00:59:19.079Z,99.99
2019-03-23T01:00:29.007Z,99.99
2019-03-23T01:01:38.935Z,99.99
2019-03-23T01:02:48.861Z,99.99
2019-03-23T01:03:58.790Z,99.99
2019-03-23T01:05:08.715Z,99.99
2019-03-23T01:06:18.665Z,99.99
2019-03-23T01:07:28.585Z,99.99
2019-03-23T01:08:38.504Z,99.99
2019-03-23T01:09:48.280Z,99.99
2019-03-23T01:10:58.204Z,99.99
2019-03-23T01:12:08.127Z,99.99
2019-03-23T01:13:18.087Z,99.99
2019-03-23T01:14:28.016Z,99.99
2019-03-23T01:15:37.949Z,99.99
2019-03-23T01:16:47.868Z,99.99
2019-03-23T01:17:57.789Z,99.99
2019-03-23T01:19:07.731Z,99.99
2019-03-23T01:20:17.660Z,99.99
2019-03-23T01:21:27.578Z,99.99
2019-03-23T01:22:37.497Z,99.99
2019-03-23T01:23:47.419Z,99.99
2019-03-23T01:24:57.366Z,99.99
2019-03-23T01:26:07.488Z,99.99
2019-03-23T01:27:17.666Z,99.99
2019-03-23T01:28:27.584Z,99.99
2019-03-23T01:29:37.502Z,99.99
2019-03-23T01:30:47.423Z,99.99
2019-03-23T01:31:57.346Z,99.99
2019-03-23T01:33:07.268Z,99.99
2019-03-23T01:34:17.191Z,99.99
2019-03-23T01:35:26.935Z,99.99
2019-03-23T01:36:36.862Z,99.99
2019-03-23T01:37:46.784Z,99.99
2019-03-23T01:38:56.806Z,99.99
2019-03-23T01:40:06.730Z,99.99
2019-03-23T01:41:16.695Z,99.99
2019-03-23T01:42:26.611Z,99.99
2019-03-23T01:43:36.544Z,99.99
2019-03-23T01:44:46.469Z,99.99
2019-03-23T01:45:56.436Z,99.99
2019-03-23T01:47:06.359Z,99.99
2019-03-23T01:48:16.281Z,99.99
2019-03-23T01:49:26.211Z,99.99
2019-03-23T01:50:36.184Z,99.99
2019-03-23T01:51:46.100Z,99.99
2019-03-23T01:52:56.021Z,99.99
2019-03-23T01:54:05.946Z,99.99
2019-03-23T01:55:15.620Z,99.99
2019-03-23T01:56:25.590Z,99.99
2019-03-23T01:57:35.514Z,99.99
2019-03-23T01:58:45.429Z,99.99
2019-03-23T01:59:55.406Z,99.99
2019-03-23T02:01:05.073Z,99.99
2019-03-23T02:02:15.001Z,99.99
2019-03-23T02:03:24.924Z,99.99
2019-03-23T02:04:34.648Z,99.99
2019-03-23T02:05:44.567Z,99.99
2019-03-23T02:06:54.491Z,99.99
2019-03-23T02:08:04.437Z,99.99
2019-03-23T02:09:14.404Z,99.99
2019-03-23T02:10:24.336Z,99.99
2019-03-23T02:11:34.256Z,99.99
2019-03-23T02:12:44.223Z,99.99
2019-03-23T02:13:54.258Z,99.99
2019-03-23T02:15:04.175Z,99.99
2019-03-23T02:16:14.105Z,99.99
2019-03-23T02:17:24.055Z,99.99
2019-03-23T02:18:33.982Z,99.99
2019-03-23T02:19:44.004Z,99.99
2019-03-23T02:20:53.935Z,99.99
2019-03-23T02:22:03.602Z,99.99
2019-03-23T02:23:13.530Z,99.99
2019-03-23T02:24:23.458Z,99.99
2019-03-23T02:25:33.385Z,99.99
2019-03-23T02:26:43.327Z,99.99
2019-03-23T02:27:53.244Z,99.99
2019-03-23T02:29:03.170Z,99.99
2019-03-23T02:30:13.126Z,99.99
2019-03-23T02:31:23.081Z,99.99
2019-03-23T02:32:33.015Z,99.99
2019-03-23T02:33:42.942Z,99.99
2019-03-23T02:34:52.883Z,99.99
2019-03-23T02:36:02.832Z,99.99
2019-03-23T02:37:12.774Z,99.99
2019-03-23T02:38:35.211Z,99.99
2019-03-23T02:39:45.176Z,99.99
2019-03-23T02:40:55.161Z,99.99
2019-03-23T02:42:05.105Z,99.99
2019-03-23T02:43:15.160Z,99.99
2019-03-23T02:44:25.111Z,99.99
2019-03-23T02:45:35.043Z,99.99
2019-03-23T02:46:44.986Z,99.99
2019-03-23T02:47:55.034Z,99.99
2019-03-23T02:49:04.976Z,99.99
2019-03-23T02:50:14.671Z,99.99
2019-03-23T02:51:24.689Z,99.99
2019-03-23T02:52:34.629Z,99.99
2019-03-23T02:53:44.601Z,99.99
2019-03-23T02:54:54.541Z,99.99
2019-03-23T02:56:04.554Z,99.99
2019-03-23T02:57:14.489Z,99.99
2019-03-23T02:58:24.432Z,99.99
2019-03-23T02:59:34.385Z,99.99
2019-03-23T03:00:44.322Z,99.99
2019-03-23T03:01:54.265Z,99.99
2019-03-23T03:03:04.204Z,99.99
2019-03-23T03:04:14.138Z,99.99
2019-03-23T03:05:24.129Z,99.99
2019-03-23T03:06:34.065Z,99.99
2019-03-23T03:07:45.974Z,99.99
2019-03-23T03:08:55.906Z,99.99
2019-03-23T03:10:05.845Z,99.99
2019-03-23T03:11:15.895Z,99.99
2019-03-23T03:12:25.865Z,99.99
2019-03-23T03:13:35.799Z,99.99
2019-03-23T03:14:45.728Z,99.99
2019-03-23T03:15:55.702Z,99.99
2019-03-23T03:17:05.755Z,99.99
2019-03-23T03:18:15.707Z,99.99
2019-03-23T03:19:25.718Z,99.99
2019-03-23T03:20:35.668Z,99.99
2019-03-23T03:21:45.647Z,99.99
2019-03-23T03:22:55.570Z,99.99
2019-03-23T03:24:05.513Z,99.99
2019-03-23T03:25:15.442Z,99.99
2019-03-23T03:26:25.377Z,99.99
2019-03-23T03:27:35.305Z,99.99
2019-03-23T03:28:44.987Z,99.99
2019-03-23T03:29:54.663Z,99.99
2019-03-23T03:31:04.712Z,99.99
2019-03-23T03:32:14.497Z,99.99
2019-03-23T03:33:24.513Z,99.99
2019-03-23T03:34:34.256Z,99.99
2019-03-23T03:35:43.941Z,99.99
2019-03-23T03:36:53.879Z,99.99
2019-03-23T03:38:03.813Z,99.99
2019-03-23T03:39:13.749Z,99.99
2019-03-23T03:40:23.823Z,99.99
2019-03-23T03:41:33.768Z,99.99
2019-03-23T03:42:43.692Z,99.99
2019-03-23T03:43:53.647Z,99.99
2019-03-23T03:45:03.590Z,99.99
2019-03-23T03:46:13.564Z,99.99
2019-03-23T03:47:23.502Z,99.99
2019-03-23T03:48:33.473Z,99.99
2019-03-23T03:49:43.424Z,99.99
2019-03-23T03:50:53.361Z,99.99
2019-03-23T03:52:03.299Z,99.99
2019-03-23T03:53:12.992Z,99.99
2019-03-23T03:54:22.946Z,99.99
2019-03-23T03:55:32.903Z,99.99
2019-03-23T03:56:42.841Z,99.99
2019-03-23T03:57:52.853Z,99.99
2019-03-23T03:59:02.800Z,99.99
2019-03-23T04:00:12.528Z,99.99
2019-03-23T04:01:22.458Z,99.99
2019-03-23T04:02:32.399Z,99.99
2019-03-23T04:03:42.369Z,99.99
2019-03-23T04:04:52.068Z,99.99
2019-03-23T04:06:02.010Z,99.99
2019-03-23T04:07:11.932Z,99.99
2019-03-23T04:08:21.361Z,99.99
2019-03-23T04:09:31.405Z,99.99
2019-03-23T04:10:43.375Z,99.99
2019-03-23T04:11:53.080Z,99.99
2019-03-23T04:13:03.039Z,99.99
2019-03-23T04:14:12.998Z,99.99
2019-03-23T04:15:23.000Z,99.99
2019-03-23T04:16:32.934Z,99.34
2019-03-23T04:17:42.878Z,99.34
2019-03-23T04:18:52.831Z,98.35
2019-03-23T04:20:03.060Z,98.63
2019-03-23T04:21:13.095Z,98.44
2019-03-23T04:22:22.788Z,97.97
2019-03-23T04:23:32.480Z,97.4
2019-03-23T04:24:42.418Z,97.16
2019-03-23T04:25:52.349Z,97.31
2019-03-23T04:27:02.407Z,97.26
2019-03-23T04:28:12.120Z,96.88
2019-03-23T04:29:22.112Z,96.41
2019-03-23T04:30:32.058Z,95.65
2019-03-23T04:31:41.994Z,95.45
2019-03-23T04:32:51.925Z,95.65
2019-03-23T04:34:01.870Z,94.42
2019-03-23T04:35:11.793Z,94.32
2019-03-23T04:36:21.745Z,92.71
2019-03-23T04:37:31.669Z,91.47
2019-03-23T04:38:41.602Z,91.57
2019-03-23T04:39:51.530Z,92.23
2019-03-23T04:41:01.249Z,92.14
2019-03-23T04:42:11.195Z,91.09
2019-03-23T04:43:21.115Z,90.43
2019-03-23T04:44:31.135Z,89.77
2019-03-23T04:45:41.058Z,89.77
2019-03-23T04:46:50.982Z,90.15
2019-03-23T04:48:00.898Z,90.72
2019-03-23T04:49:10.824Z,91.66
2019-03-23T04:50:20.858Z,91.66
2019-03-23T04:51:30.777Z,91.95
2019-03-23T04:52:40.716Z,91
2019-03-23T04:53:50.390Z,89.39
2019-03-23T04:55:00.339Z,88.35
2019-03-23T04:56:10.273Z,88.06
2019-03-23T04:57:20.193Z,87.02
2019-03-23T04:58:30.142Z,85.5
2019-03-23T04:59:40.056Z,85.88
2019-03-23T05:00:49.975Z,84.78
2019-03-23T05:01:59.904Z,84.59
2019-03-23T05:03:09.834Z,84.78
2019-03-23T05:04:19.760Z,84.69
2019-03-23T05:05:29.721Z,84.69
2019-03-23T05:06:39.643Z,84.98
2019-03-23T05:07:50.262Z,84.03
2019-03-23T05:09:00.183Z,83.94
2019-03-23T05:10:10.140Z,83.89
2019-03-23T05:11:20.070Z,83.74
2019-03-23T05:12:29.993Z,83.17
2019-03-23T05:13:40.018Z,82.7
2019-03-23T05:14:49.933Z,82.42
2019-03-23T05:15:59.853Z,82.51
2019-03-23T05:17:09.780Z,82.79
2019-03-23T05:18:19.453Z,82.13
2019-03-23T05:19:29.623Z,81.66
2019-03-23T05:20:39.548Z,81.75
2019-03-23T05:21:49.005Z,81.71
2019-03-23T05:22:58.876Z,81.99
2019-03-23T05:24:08.795Z,82.09
2019-03-23T05:25:18.764Z,82.47
2019-03-23T05:26:28.444Z,82.37
2019-03-23T05:27:38.368Z,82.66
2019-03-23T05:28:48.283Z,82.56
2019-03-23T05:29:58.217Z,83.13
2019-03-23T05:31:09.601Z,82.94
2019-03-23T05:32:19.531Z,83.8
2019-03-23T05:33:29.452Z,83.7
2019-03-23T05:34:39.381Z,84.27
2019-03-23T05:35:49.304Z,84.74
2019-03-23T05:36:59.232Z,85.88
2019-03-23T05:38:09.168Z,86.16
2019-03-23T05:39:19.093Z,85.78
2019-03-23T05:40:29.016Z,85.22
2019-03-23T05:41:38.690Z,85.5
2019-03-23T05:42:48.758Z,84.46
2019-03-23T05:43:58.693Z,83.98
2019-03-23T05:45:08.628Z,83.61
2019-03-23T05:46:18.549Z,84.08
2019-03-23T05:47:28.476Z,83.89
2019-03-23T05:48:38.500Z,83.04
2019-03-23T05:49:48.424Z,83.7
2019-03-23T05:50:58.356Z,83.98
2019-03-23T05:52:08.278Z,83.13
2019-03-23T05:53:18.226Z,83.32
2019-03-23T05:54:28.148Z,82.85
2019-03-23T05:55:38.068Z,82.47
2019-03-23T05:56:47.983Z,81.99
2019-03-23T05:57:57.903Z,82.28
2019-03-23T05:59:07.826Z,81.62
2019-03-23T06:00:17.747Z,81.62
2019-03-23T06:01:27.669Z,81.52
2019-03-23T06:02:37.661Z,80.57
2019-03-23T06:03:47.586Z,80.19
2019-03-23T06:04:57.515Z,80.86
2019-03-23T06:06:07.435Z,80.57
2019-03-23T06:07:17.352Z,80.82
2019-03-23T06:08:27.272Z,80.57
2019-03-23T06:09:37.249Z,81.57
2019-03-23T06:10:47.178Z,81.29
2019-03-23T06:11:57.194Z,81.67
2019-03-23T06:13:07.116Z,81.38
2019-03-23T06:14:17.039Z,80.82
2019-03-23T06:15:26.976Z,80.72
2019-03-23T06:16:36.918Z,80.34
2019-03-23T06:17:46.937Z,80.25
2019-03-23T06:18:56.859Z,79.3
2019-03-23T06:20:07.202Z,77.97
2019-03-23T06:21:17.167Z,77.78
2019-03-23T06:22:27.098Z,77.69
2019-03-23T06:23:37.066Z,77.45
2019-03-23T06:24:47.029Z,77.35
2019-03-23T06:25:56.708Z,77.59
2019-03-23T06:27:09.278Z,78.02
2019-03-23T06:28:19.195Z,77.92
2019-03-23T06:29:29.125Z,78.58
2019-03-23T06:30:39.065Z,78.67
2019-03-23T06:31:48.988Z,78.67
2019-03-23T06:32:59.450Z,78.58
2019-03-23T06:34:09.478Z,78.2
2019-03-23T06:35:19.554Z,78.49
2019-03-23T06:36:29.472Z,77.83
2019-03-23T06:37:39.393Z,77.73
2019-03-23T06:38:49.324Z,77.45
2019-03-23T06:40:08.233Z,77.06
2019-03-23T06:41:18.265Z,77.06
2019-03-23T06:42:28.182Z,76.87
2019-03-23T06:43:38.111Z,75.74
2019-03-23T06:44:48.031Z,75.64
2019-03-23T06:45:57.948Z,75.36
2019-03-23T06:47:07.972Z,74.79
2019-03-23T06:48:17.902Z,74.03
2019-03-23T06:49:27.826Z,73.37
2019-03-23T06:50:37.750Z,73.37
2019-03-23T06:51:47.672Z,72.89
2019-03-23T06:52:57.690Z,72.42
2019-03-23T06:54:07.609Z,71.95
2019-03-23T06:55:17.543Z,72.04
2019-03-23T06:56:27.468Z,71.76
2019-03-23T06:57:37.389Z,71.57
2019-03-23T06:58:47.418Z,71.57
2019-03-23T06:59:57.348Z,70.62
2019-03-23T07:01:07.269Z,70.62
2019-03-23T07:02:17.193Z,70.43
2019-03-23T07:03:27.112Z,69.29
2019-03-23T07:04:37.033Z,69.67
2019-03-23T07:05:46.965Z,69.96
2019-03-23T07:06:56.908Z,69.86
2019-03-23T07:08:06.835Z,70.34
2019-03-23T07:09:18.931Z,70.15
2019-03-23T07:10:28.846Z,70.15
2019-03-23T07:11:38.790Z,70.15
2019-03-23T07:12:48.712Z,70.81
2019-03-23T07:13:58.638Z,70.05
2019-03-23T07:15:19.088Z,69.86
2019-03-23T07:16:29.517Z,69.38
2019-03-23T07:17:39.450Z,69.67
2019-03-23T07:18:49.366Z,69.29
2019-03-23T07:19:59.040Z,69.04
2019-03-23T07:21:08.965Z,68.57
2019-03-23T07:22:18.741Z,68.19
2019-03-23T07:23:28.704Z,67.81
2019-03-23T07:24:38.633Z,67.71
2019-03-23T07:25:48.303Z,67.9
2019-03-23T07:26:58.229Z,67.9
2019-03-23T07:28:10.458Z,67.9
2019-03-23T07:29:20.380Z,67.05
2019-03-23T07:30:30.310Z,67.24
2019-03-23T07:31:40.258Z,66.1
2019-03-23T07:32:50.186Z,65.91
2019-03-23T07:34:00.113Z,65.91
2019-03-23T07:35:11.441Z,65.25
2019-03-23T07:36:21.377Z,65.82
2019-03-23T07:37:31.313Z,65.82
2019-03-23T07:38:40.988Z,65.82
2019-03-23T07:39:51.026Z,65.44
2019-03-23T07:41:00.992Z,65.63
2019-03-23T07:42:10.674Z,65.34
2019-03-23T07:43:20.601Z,64.87
2019-03-23T07:44:30.577Z,65.72
2019-03-23T07:45:40.608Z,66.39
2019-03-23T07:46:50.535Z,65.25
2019-03-23T07:48:00.460Z,65.91
2019-03-23T07:49:10.396Z,65.91
2019-03-23T07:50:20.323Z,65.34
2019-03-23T07:51:30.347Z,65.72
2019-03-23T07:52:40.266Z,65.63
2019-03-23T07:53:50.193Z,65.91
2019-03-23T07:55:00.117Z,65.82
2019-03-23T07:56:10.041Z,65.16
2019-03-23T07:57:19.961Z,64.68
2019-03-23T07:58:29.629Z,63.92
2019-03-23T07:59:39.549Z,64.78
2019-03-23T08:00:49.474Z,64.87
2019-03-23T08:01:59.404Z,65.16
2019-03-23T08:03:09.569Z,65.63
2019-03-23T08:04:19.258Z,64.68
2019-03-23T08:05:29.179Z,64.49
2019-03-23T08:06:39.102Z,64.24
2019-03-23T08:07:49.029Z,64.71
2019-03-23T08:08:58.951Z,64.68
2019-03-23T08:10:08.890Z,65.28
2019-03-23T08:11:18.817Z,65
2019-03-23T08:12:28.743Z,64.14
2019-03-23T08:13:38.673Z,63.2
2019-03-23T08:14:48.722Z,63.76
2019-03-23T08:15:58.641Z,63.67
2019-03-23T08:17:08.571Z,62.43
2019-03-23T08:18:18.553Z,62.53
2019-03-23T08:19:28.481Z,61.2
2019-03-23T08:20:38.499Z,61.58
2019-03-23T08:21:48.419Z,61.87
2019-03-23T08:22:58.355Z,61.58
2019-03-23T08:24:08.311Z,61.39
2019-03-23T08:25:18.235Z,60.73
2019-03-23T08:26:27.916Z,62.05
2019-03-23T08:27:37.843Z,61.39
2019-03-23T08:28:49.283Z,61.49
2019-03-23T08:29:59.203Z,61.11
2019-03-23T08:31:09.135Z,61.58
2019-03-23T08:32:18.808Z,62.72
2019-03-23T08:33:28.748Z,62.82
2019-03-23T08:34:38.667Z,60.73
2019-03-23T08:35:48.595Z,60.44
2019-03-23T08:36:58.512Z,61.39
2019-03-23T08:38:09.803Z,61.58
2019-03-23T08:39:19.732Z,60.53
2019-03-23T08:40:29.783Z,60.44
2019-03-23T08:41:41.040Z,59.97
2019-03-23T08:42:50.968Z,59.59
2019-03-23T08:44:00.991Z,59.11
2019-03-23T08:45:10.935Z,58.92
2019-03-23T08:46:20.865Z,58.92
2019-03-23T08:47:30.538Z,59.78
2019-03-23T08:48:40.456Z,60.44
2019-03-23T08:49:50.482Z,58.83
2019-03-23T08:51:02.492Z,58.17
2019-03-23T08:52:12.450Z,59.88
2019-03-23T08:53:22.373Z,60.35
2019-03-23T08:54:32.301Z,59.88
2019-03-23T08:55:42.324Z,61.01
2019-03-23T08:56:52.240Z,61.39
2019-03-23T08:58:02.157Z,59.02
2019-03-23T08:59:12.086Z,57.59
2019-03-23T09:00:22.007Z,59.05
2019-03-23T09:01:31.944Z,58.95
2019-03-23T09:02:41.864Z,58.36
2019-03-23T09:03:55.211Z,56.74
2019-03-23T09:05:05.140Z,55.22
2019-03-23T09:06:15.070Z,56.29
2019-03-23T09:07:24.998Z,58.39
2019-03-23T09:08:34.920Z,58.95
2019-03-23T09:09:44.838Z,58.76
2019-03-23T09:11:04.317Z,59.43
2019-03-23T09:12:25.443Z,60.47
2019-03-23T09:13:43.068Z,60.1
2019-03-23T09:14:52.992Z,58.86
2019-03-23T09:16:03.048Z,58.76
2019-03-23T09:17:12.978Z,58.29
2019-03-23T09:18:22.901Z,59.05
2019-03-23T09:19:32.825Z,59.05
2019-03-23T09:20:42.291Z,57.72
2019-03-23T09:21:52.254Z,58.39
2019-03-23T09:23:02.178Z,58.29
2019-03-23T09:24:12.098Z,57.34
2019-03-23T09:25:22.024Z,57.15
2019-03-23T09:26:31.963Z,56.58
2019-03-23T09:27:41.903Z,57.43
2019-03-23T09:28:51.835Z,56.96
2019-03-23T09:30:01.805Z,56.68
2019-03-23T09:31:11.753Z,57.34
2019-03-23T09:32:21.701Z,56.96
2019-03-23T09:33:31.632Z,56.68
2019-03-23T09:34:41.585Z,55.25
2019-03-23T09:35:51.509Z,57.15
2019-03-23T09:37:01.432Z,57.15
2019-03-23T09:38:11.352Z,57.15
2019-03-23T09:39:21.282Z,56.96
2019-03-23T09:40:31.206Z,56.2
2019-03-23T09:41:41.231Z,56.2
2019-03-23T09:42:51.153Z,56.87
2019-03-23T09:44:01.078Z,57.34
2019-03-23T09:45:11.001Z,57.24
2019-03-23T09:46:22.052Z,57.24
2019-03-23T09:47:32.083Z,57.53
2019-03-23T09:48:42.045Z,57.62
2019-03-23T09:49:51.972Z,56.29
2019-03-23T09:51:01.895Z,56.96
2019-03-23T09:52:11.816Z,55.91
2019-03-23T09:53:21.849Z,56.01
2019-03-23T09:54:31.771Z,55.16
2019-03-23T09:55:41.724Z,55.35
2019-03-23T09:56:51.650Z,54.87
2019-03-23T09:58:02.523Z,53.92
2019-03-23T09:59:12.444Z,53.26
2019-03-23T10:00:22.364Z,54.14
2019-03-23T10:01:32.292Z,55.47
2019-03-23T10:02:42.219Z,53.83
2019-03-23T10:03:52.142Z,53
2019-03-23T10:05:02.125Z,53.09
2019-03-23T10:06:12.096Z,53.47
2019-03-23T10:07:21.762Z,53.09
2019-03-23T10:08:31.683Z,52.14
2019-03-23T10:09:41.621Z,52.24
2019-03-23T10:10:51.541Z,53.47
2019-03-23T10:12:01.760Z,53.28
2019-03-23T10:13:11.696Z,53.09
2019-03-23T10:14:21.681Z,54.24
2019-03-23T10:15:31.604Z,53
2019-03-23T10:16:41.628Z,52.33
2019-03-23T10:17:51.558Z,53.28
2019-03-23T10:19:01.486Z,51.76
2019-03-23T10:20:11.411Z,52.74
2019-03-23T10:21:21.384Z,52.17
2019-03-23T10:22:31.407Z,51.48
2019-03-23T10:23:41.327Z,51.41
2019-03-23T10:24:51.248Z,51.6
2019-03-23T10:26:01.170Z,51.39
2019-03-23T10:27:10.888Z,51.39
2019-03-23T10:28:20.855Z,51.95
2019-03-23T10:29:30.779Z,52.53
2019-03-23T10:30:40.698Z,52.24
2019-03-23T10:31:50.626Z,52.14
2019-03-23T10:33:01.047Z,52.14
2019-03-23T10:34:10.743Z,51.95
2019-03-23T10:35:20.663Z,53.38
2019-03-23T10:36:30.596Z,53
2019-03-23T10:37:40.521Z,52.24
2019-03-23T10:38:50.463Z,53.09
2019-03-23T10:40:00.431Z,53.85
2019-03-23T10:41:12.719Z,53.19
2019-03-23T10:42:22.402Z,52.33
2019-03-23T10:43:32.329Z,52.53
2019-03-23T10:44:44.262Z,51.76
2019-03-23T10:45:54.308Z,51.76
2019-03-23T10:47:04.242Z,52.14
2019-03-23T10:48:14.732Z,53.28
2019-03-23T10:49:24.661Z,52.81
2019-03-23T10:50:34.585Z,53.19
2019-03-23T10:51:44.522Z,53.19
2019-03-23T10:52:54.442Z,52.43
2019-03-23T10:54:06.550Z,52.62
2019-03-23T10:55:16.471Z,53
2019-03-23T10:56:26.397Z,53.19
2019-03-23T10:57:36.366Z,53.09
2019-03-23T10:58:46.289Z,52.33
2019-03-23T10:59:56.209Z,51.29
2019-03-23T11:01:06.130Z,51.1
2019-03-23T11:02:16.051Z,51.48
2019-03-23T11:03:25.967Z,51.2
2019-03-23T11:04:35.890Z,50.53
2019-03-23T11:05:45.807Z,50.81
2019-03-23T11:06:55.726Z,50.62
2019-03-23T11:08:05.649Z,50.43
2019-03-23T11:09:15.626Z,50.34
2019-03-23T11:10:25.549Z,51.67
2019-03-23T11:11:44.766Z,52.08
2019-03-23T11:12:54.717Z,50.46
2019-03-23T11:14:04.648Z,50.65
2019-03-23T11:15:15.171Z,50.68
2019-03-23T11:16:25.098Z,51.62
2019-03-23T11:17:35.026Z,50.48
2019-03-23T11:18:44.954Z,50.58
2019-03-23T11:19:54.880Z,50.2
2019-03-23T11:21:06.192Z,49.08
2019-03-23T11:22:15.866Z,48.23
2019-03-23T11:23:25.783Z,46.7
2019-03-23T11:24:35.716Z,47.68
2019-03-23T11:25:45.640Z,47.11
2019-03-23T11:26:55.591Z,45.3
2019-03-23T11:28:05.521Z,44.64
2019-03-23T11:29:15.448Z,43.78
2019-03-23T11:30:25.376Z,45.18
2019-03-23T11:31:35.301Z,46.78
2019-03-23T11:32:45.280Z,47.44
2019-03-23T11:33:55.244Z,46.23
2019-03-23T11:35:05.254Z,45.85
2019-03-23T11:36:15.828Z,45.95
2019-03-23T11:37:26.065Z,44.9
2019-03-23T11:38:36.460Z,45.37
2019-03-23T11:39:46.145Z,45.4
2019-03-23T11:40:57.701Z,45.87
2019-03-23T11:42:07.626Z,45.37
2019-03-23T11:43:17.548Z,45.47
2019-03-23T11:44:27.484Z,46.15
2019-03-23T11:45:37.412Z,45.21
2019-03-23T11:46:47.363Z,44.94
2019-03-23T11:47:57.294Z,44.11
2019-03-23T11:49:07.227Z,43.71
2019-03-23T11:50:17.263Z,43.99
2019-03-23T11:51:27.190Z,43.25
2019-03-23T11:52:37.116Z,42.4
2019-03-23T11:53:47.043Z,43.35
2019-03-23T11:54:56.984Z,43.9
2019-03-23T11:56:06.924Z,43.73
2019-03-23T11:57:16.853Z,43.06
2019-03-23T11:58:26.784Z,43.25
2019-03-23T11:59:36.749Z,43.16
2019-03-23T12:00:46.694Z,42.49
2019-03-23T12:01:56.634Z,42.3
2019-03-23T12:03:06.572Z,42.49
2019-03-23T12:04:16.524Z,41.36
2019-03-23T12:05:28.035Z,41.72
2019-03-23T12:06:37.966Z,40.87
2019-03-23T12:07:47.962Z,42.2
2019-03-23T12:08:57.900Z,42.49
2019-03-23T12:10:07.837Z,42.68
2019-03-23T12:11:17.776Z,43.06
2019-03-23T12:12:27.714Z,43.06
2019-03-23T12:13:37.647Z,41.92
2019-03-23T12:14:47.582Z,43.25
2019-03-23T12:15:57.516Z,43.16
2019-03-23T12:17:07.446Z,42.3
2019-03-23T12:18:17.389Z,42.11
2019-03-23T12:19:27.429Z,42.4
2019-03-23T12:20:37.367Z,42.85
2019-03-23T12:21:47.313Z,42.18
2019-03-23T12:22:58.511Z,41.99
2019-03-23T12:24:08.445Z,42.47
2019-03-23T12:25:18.424Z,42.18
2019-03-23T12:26:28.358Z,41.99
2019-03-23T12:27:38.306Z,42.56
2019-03-23T12:28:48.243Z,43.32
2019-03-23T12:30:09.183Z,43.23
2019-03-23T12:31:19.136Z,44.18
2019-03-23T12:32:29.063Z,44.73
2019-03-23T12:33:38.989Z,44.92
2019-03-23T12:34:48.929Z,44.54
2019-03-23T12:35:58.859Z,43.23
2019-03-23T12:37:08.793Z,43.71
2019-03-23T12:38:18.724Z,43.71
2019-03-23T12:39:28.680Z,43.9
2019-03-23T12:40:39.016Z,43.91
2019-03-23T12:41:49.054Z,42.68
2019-03-23T13:49:47.171Z,50.46
2019-03-23T13:50:57.111Z,50.74
2019-03-23T13:52:07.037Z,50.27
2019-03-23T13:53:16.976Z,50.74
2019-03-23T13:54:26.902Z,51.31
2019-03-23T13:55:36.831Z,52.08
2019-03-23T13:56:46.752Z,51.51
2019-03-23T13:57:56.675Z,50.46
2019-03-23T13:59:06.605Z,49.51
2019-03-23T14:00:16.533Z,48.56
2019-03-23T14:01:26.457Z,49.89
2019-03-23T14:02:36.151Z,50.74
2019-03-23T14:03:46.081Z,49.51
2019-03-23T14:04:56.005Z,49.32
2019-03-23T14:06:05.984Z,50.56
2019-03-23T14:07:15.971Z,50.08
2019-03-23T14:08:25.643Z,50.08
2019-03-23T14:09:35.564Z,50.62
2019-03-23T14:10:45.530Z,50.53
2019-03-23T14:11:57.719Z,50.81
2019-03-23T14:13:07.652Z,50.74
2019-03-23T14:14:17.581Z,50.93
2019-03-23T14:15:27.503Z,48.77
2019-03-23T14:16:37.425Z,47.92
2019-03-23T14:17:47.367Z,49.04
2019-03-23T14:18:57.296Z,47.8
2019-03-23T14:20:07.217Z,47.99
2019-03-23T14:21:17.161Z,47.61
2019-03-23T14:22:27.086Z,48.01
2019-03-23T14:23:37.060Z,46.56
2019-03-23T14:24:47.097Z,46.2
2019-03-23T14:25:57.025Z,44.87
2019-03-23T14:27:06.959Z,45.16
2019-03-23T14:28:16.883Z,46.11
2019-03-23T14:29:26.808Z,44.21
2019-03-23T14:30:36.743Z,43.45
2019-03-23T14:31:46.663Z,42.4
2019-03-23T14:32:56.591Z,43.07
2019-03-23T14:34:06.523Z,41.74
2019-03-23T14:35:16.205Z,42.14
2019-03-23T14:36:26.137Z,44.04
2019-03-23T14:37:35.818Z,43.85
2019-03-23T14:38:45.780Z,43.19
2019-03-23T14:39:55.743Z,43.73
2019-03-23T14:41:05.666Z,43.93
2019-03-23T14:42:15.644Z,43.45
2019-03-23T14:43:25.566Z,43.66
2019-03-23T14:44:35.509Z,43.66
2019-03-23T14:45:45.455Z,44.8
2019-03-23T14:46:55.381Z,44.9
2019-03-23T14:48:05.054Z,45.87
2019-03-23T14:49:14.978Z,46.15
2019-03-23T14:50:24.916Z,46.25
2019-03-23T14:51:34.869Z,45.87
2019-03-23T14:52:44.831Z,45.78
2019-03-23T14:53:54.857Z,45.32
2019-03-23T14:55:04.792Z,44.85
2019-03-23T14:56:14.724Z,45.21
2019-03-23T14:57:24.661Z,46.35
2019-03-23T14:58:34.611Z,46.18
2019-03-23T14:59:44.599Z,46.28
2019-03-23T15:00:54.523Z,45.49
2019-03-23T15:02:04.491Z,46.25
2019-03-23T15:03:14.422Z,46.06
2019-03-23T15:04:24.350Z,45.8
2019-03-23T15:05:34.286Z,45.3
2019-03-23T15:06:44.268Z,45.01
2019-03-23T15:07:54.207Z,46.63
2019-03-23T15:09:03.891Z,46.83
2019-03-23T15:10:13.824Z,46.54
2019-03-23T15:11:23.764Z,46.15
2019-03-23T15:12:33.699Z,46.35
2019-03-23T15:13:43.661Z,46.25
2019-03-23T15:14:55.204Z,46.54
2019-03-23T15:16:05.136Z,46.61
2019-03-23T15:17:15.139Z,46.99
2019-03-23T15:18:25.069Z,46.42
2019-03-23T15:19:34.995Z,47.85
2019-03-23T15:20:44.927Z,48.42
2019-03-23T15:21:54.871Z,48.99
2019-03-23T15:23:04.900Z,48.61
2019-03-23T15:24:14.574Z,48.71
2019-03-23T15:25:24.509Z,48.51
2019-03-23T15:26:34.452Z,48.61
2019-03-23T15:27:44.428Z,48.51
2019-03-23T15:28:54.364Z,48.32
2019-03-23T15:30:04.309Z,48.42
2019-03-23T15:31:14.241Z,48.61
2019-03-23T15:32:24.171Z,49.46
2019-03-23T15:33:34.098Z,49.08
2019-03-23T15:34:44.083Z,49.65
2019-03-23T15:35:54.006Z,49.46
2019-03-23T15:37:03.933Z,48.99
2019-03-23T15:38:13.611Z,48.9
2019-03-23T15:39:23.555Z,49.37
2019-03-23T15:40:33.483Z,49.94
2019-03-23T15:41:43.410Z,49.56
2019-03-23T15:42:53.337Z,50.2
2019-03-23T15:44:03.269Z,50.48
2019-03-23T15:45:13.209Z,51.22
2019-03-23T15:46:23.146Z,52.26
2019-03-23T15:47:33.068Z,52.36
2019-03-23T15:48:43.008Z,53.59
2019-03-23T15:49:52.934Z,54.05
2019-03-23T15:51:02.900Z,56.04
2019-03-23T15:52:12.876Z,55.85
2019-03-23T15:53:22.563Z,54.8
2019-03-23T15:54:32.487Z,54.61
2019-03-23T15:55:42.413Z,55.76
2019-03-23T15:56:52.357Z,54.9
2019-03-23T15:58:02.382Z,54.61
2019-03-23T15:59:12.354Z,55.25
2019-03-23T16:00:22.329Z,55.44
2019-03-23T16:01:32.254Z,55.91
2019-03-23T16:02:42.217Z,54.78
2019-03-23T16:03:52.144Z,53.83
2019-03-23T16:05:02.077Z,53.26
2019-03-23T16:06:12.006Z,52.31
2019-03-23T16:07:31.658Z,53.92
2019-03-23T16:08:41.586Z,53.45
2019-03-23T16:09:51.565Z,54.11
2019-03-23T16:11:01.487Z,53.64
2019-03-23T16:12:11.457Z,54.3